SAVT/REL METAR and TAF weather

Enter ICAO airport designator
Station Type Date Time Source
SAVT METAR 2019/11/17 18:15 UTC NOAA

SAVT 171815Z 25014KT 9999 RESH BKN034 23/M00 Q1004


Station Type Date Time Source
SAVT Decoded METAR 2019/11/17 18:15 UTC NOAA

Trelew Aerodrome, Argentina (SAVT) 43-12S 065-16W 43M
Nov 17, 2019 - 01:15 PM EST / 2019.11.17 1815 UTC
Wind: from the WSW (250 degrees) at 16 MPH (14 KT):0
Visibility: greater than 7 mile(s):0
Sky conditions: mostly cloudy
Weather: showers during the past hour
Temperature: 73 F (23 C)
Dew Point: 32 F (0 C)
Relative Humidity: 21%
Pressure (altimeter): 29.65 in. Hg (1004 hPa)
ob: SAVT 171815Z 25014KT 9999 RESH BKN034 23/M00 Q1004
cycle: 18

Station Type Date Time Source
SAVT TAF 2019/04/29 08:53 UTC NOAA

TAF
AMD SAVT 290800Z 2908/3006 27025G40KT 9999 SCT020 BKN035 TX16/2919Z TN07/3006Z
TEMPO 2911/2914 7000 -SHRA OVC020 SCT030
BECMG 3002/3004 25015KT

Example: see airport list